Weather observations for the past three days for
Bakersfield, Meadows Field Airport
Imperial (Metric)
Date Time (pdt) Wind (mph) Vis. (mi.) Weather Sky Cond. Temperature (ºF) Relative Humidity Wind Chill (°F) Heat Index (°F) Pressure Precipitation (in)
Air Dwpt 6 hour altimeter (in) sea level (mb) 1 hr 3 hr 6 hr
Max. Min.
31 17:54 NW 13 10.00 Fair CLR 93 39 15% 89 29.78 1007.7
31 16:54 NW 15 10.00 Fair CLR 93 42.1 95 82 17% 89 29.79 1007.9
31 15:54 NW 13 10.00 Fair CLR 93.9 42.1 17% 90 29.79 1008.1
31 14:54 W 15 10.00 Fair CLR 93.9 39 15% 90 29.82 1008.9
31 13:54 NW 12 G 20 10.00 Fair CLR 91.9 43 18% 88 29.84 1009.6
31 12:54 NW 9 10.00 Fair CLR 89.1 46 23% 86 29.86 1010.2
31 11:54 NW 6 10.00 Fair CLR 86 46.9 26% 83 29.87 1011.0
31 10:54 W 6 10.00 Fair CLR 82.9 48 82.9 66 30% 81 29.89 1011.3
31 09:54 Vrbl 3 10.00 Fair CLR 79 46.9 32% 79 29.89 1011.5
31 08:54 SW 3 10.00 Fair CLR 75 45 34% 77 29.89 1011.5
31 07:54 Calm 10.00 Fair CLR 72 42.1 34% 29.89 1011.6
31 06:54 NE 3 9.00 Fair CLR 66.9 39 36% 29.87 1010.8
31 05:54 Calm 10.00 Fair CLR 70 39.9 34% 29.86 1010.4
31 04:54 Calm 10.00 Fair CLR 71.1 39 80.1 70 31% 29.85 1010.1
31 03:54 NE 5 10.00 Fair CLR 72 37.9 29% 29.86 1010.2
31 02:54 N 6 10.00 A Few Clouds FEW110 73 37 27% 29.85 1010.0
31 01:54 N 7 10.00 Fair CLR 71.1 35.1 27% 29.84 1009.8
31 00:54 NW 7 10.00 Fair CLR 73.9 34 23% 29.84 1009.9
30 23:54 NW 3 10.00 Fair CLR 75.9 35.1 23% 77 29.84 1009.7
30 22:54 N 9 10.00 Fair CLR 80.1 36 95 79 20% 79 29.83 1009.5
30 21:54 NW 9 10.00 Fair CLR 80.1 48 33% 79 29.83 1009.4
30 20:54 N 6 10.00 Fair CLR 86 48 27% 83 29.81 1008.6
30 19:54 N 7 10.00 Fair CLR 84.9 48 28% 83 29.79 1008.0
30 18:54 NW 7 10.00 Fair CLR 89.1 48 24% 86 29.79 1008.0
30 17:54 NW 12 10.00 Fair CLR 93 46 20% 89 29.79 1008.1
30 16:54 W 14 10.00 Fair CLR 95 46 95 81 19% 91 29.8 1008.2
30 15:54 NW 9 10.00 Fair CLR 93 46.9 21% 89 29.8 1008.6
30 14:54 W 7 10.00 Fair CLR 91.9 48 22% 89 29.83 1009.4
30 13:54 W 9 10.00 Fair CLR 90 48 24% 87 29.86 1010.2
30 12:54 NW 7 10.00 Fair CLR 87.1 46.9 25% 84 29.87 1010.9
30 11:54 W 7 10.00 Fair CLR 84.9 48.9 29% 83 29.89 1011.4
30 10:54 Calm 10.00 Fair CLR 81 48.9 81 66.9 33% 80 29.91 1012.1
30 09:54 SW 5 10.00 Fair CLR 77 48.9 37% 78 29.91 1012.3
30 08:54 SE 5 10.00 Fair CLR 73.9 50 43% 29.92 1012.5
30 07:54 SE 7 10.00 Fair CLR 70 50 49% 29.92 1012.5
30 06:54 E 5 9.00 Fair CLR 69.1 53.1 57% 29.91 1012.2
30 05:54 NE 3 10.00 Fair CLR 69.1 52 55% 29.89 1011.6
30 04:54 Calm 10.00 Fair CLR 68 53.1 82 66.9 59% 29.88 1011.3
30 03:54 NW 6 10.00 Fair CLR 69.1 52 55% 29.88 1011.2
30 02:54 SW 3 10.00 Fair CLR 71.1 52 51% 29.87 1010.9
30 01:54 NW 6 10.00 Fair CLR 75 51.1 43% 78 29.86 1010.4
30 00:54 N 6 10.00 Fair CLR 77 55 47% 78 29.86 1010.6
29 23:54 SE 5 10.00 Fair CLR 79 54 42% 79 29.86 1010.3
29 22:54 Calm 10.00 Fair CLR 82 53.1 91.9 81 37% 81 29.85 1010.2
29 21:54 N 3 9.00 Fair CLR 82.9 54 37% 82 29.86 1010.3
29 20:54 Calm 10.00 Fair CLR 84 53.1 34% 83 29.85 1010.0
29 19:54 N 3 10.00 Fair CLR 87.1 55 34% 85 29.83 1009.4
29 18:54 Calm 10.00 Fair CLR 89.1 55 31% 87 29.83 1009.5
29 17:54 Vrbl 5 10.00 Fair CLR 91 55 30% 89 29.84 1009.8
29 16:54 N 6 10.00 Fair CLR 91.9 54 91.9 82.9 28% 90 29.85 1010.0
29 15:54 W 7 10.00 Fair CLR 91 54 28% 89 29.86 1010.5
29 14:54 SW 3 10.00 Fair CLR 89.1 52 28% 87 29.89 1011.5
29 13:54 Calm 10.00 Fair CLR 86 48.9 28% 83 29.92 1012.5
29 12:54 W 7 10.00 Fair CLR 84.9 48 28% 83 29.94 1013.3
29 11:54 Vrbl 3 10.00 Fair CLR 84 48 29% 82 29.95 1013.7
29 10:54 Calm 10.00 Fair CLR 82.9 46.9 82.9 73 28% 81 29.96 1013.8
29 09:54 SE 3 10.00 Fair CLR 80.1 50 35% 80 29.98 1014.3
29 08:54 S 5 10.00 Fair CLR 78.1 51.1 39% 79 29.96 1013.9
29 07:54 E 5 9.00 Fair CLR 75 55 50% 78 29.96 1013.7
29 06:54 E 5 8.00 Fair CLR 73 57 57% 29.95 1013.4
29 05:54 Calm 10.00 Fair CLR 73 55.9 55% 29.94 1012.9
29 04:54 Calm 10.00 Fair CLR 73 57 82.9 72 57% 29.93 1012.9
29 03:54 Calm 9.00 Fair CLR 73 57 57% 29.93 1012.8
29 02:54 W 3 10.00 Fair CLR 75 55.9 52% 78 29.92 1012.5
29 01:54 N 5 10.00 Fair CLR 77 55 47% 78 29.92 1012.5
29 00:54 N 6 10.00 Fair CLR 75 57 54% 78 29.93 1012.8
28 23:54 W 5 10.00 Fair CLR 78.1 55 45% 79 29.92 1012.3
28 22:54 NE 8 10.00 Fair CLR 82.9 52 93.9 81 34% 82 29.9 1011.6
28 21:54 N 7 10.00 Fair CLR 82.9 53.1 36% 82 29.9 1011.7
28 20:54 N 8 10.00 Fair CLR 82.9 55 38% 82 29.89 1011.7
28 19:54 N 13 10.00 Fair CLR 84.9 57 39% 84 29.89 1011.4
28 18:54 NW 10 10.00 Fair CLR 88 57 35% 87 29.88 1011.2
Date Time (pdt) Wind (mph) Vis. (mi.) Weather Sky Cond. Air Dwpt Max. Min. Relative Humidity Wind Chill (°F) Heat Index (°F) altimeter (in) sea level (mb) 1 hr 3 hr 6 hr
6 hour
Temperature (ºF) Pressure Precipitation (in)